sensor_id;sensor_type;location;lat;lon;timestamp;P1;durP1;ratioP1;P2;durP2;ratioP2
8165;SDS011;4124;50.856;3.634;2022-08-21T00:00:22;4.50;;;2.20;;
8165;SDS011;4124;50.856;3.634;2022-08-21T00:02:52;4.70;;;1.87;;
8165;SDS011;4124;50.856;3.634;2022-08-21T00:05:18;6.97;;;2.07;;
8165;SDS011;4124;50.856;3.634;2022-08-21T00:07:43;4.97;;;1.90;;
8165;SDS011;4124;50.856;3.634;2022-08-21T00:10:09;4.83;;;2.20;;
8165;SDS011;4124;50.856;3.634;2022-08-21T00:12:35;4.80;;;1.90;;
8165;SDS011;4124;50.856;3.634;2022-08-21T00:15:00;4.83;;;2.17;;
8165;SDS011;4124;50.856;3.634;2022-08-21T00:17:25;6.23;;;2.00;;
8165;SDS011;4124;50.856;3.634;2022-08-21T00:19:50;4.03;;;1.97;;
8165;SDS011;4124;50.856;3.634;2022-08-21T00:22:16;2.80;;;1.77;;
8165;SDS011;4124;50.856;3.634;2022-08-21T00:24:42;4.50;;;2.23;;
8165;SDS011;4124;50.856;3.634;2022-08-21T00:27:07;4.17;;;1.97;;
8165;SDS011;4124;50.856;3.634;2022-08-21T00:29:32;4.20;;;1.97;;
8165;SDS011;4124;50.856;3.634;2022-08-21T00:31:57;3.80;;;1.80;;
8165;SDS011;4124;50.856;3.634;2022-08-21T00:34:23;2.57;;;1.70;;
8165;SDS011;4124;50.856;3.634;2022-08-21T00:36:49;4.07;;;2.20;;
8165;SDS011;4124;50.856;3.634;2022-08-21T00:39:14;2.63;;;1.80;;
8165;SDS011;4124;50.856;3.634;2022-08-21T00:41:39;4.80;;;2.40;;
8165;SDS011;4124;50.856;3.634;2022-08-21T00:44:07;6.00;;;2.37;;
8165;SDS011;4124;50.856;3.634;2022-08-21T00:46:32;2.90;;;2.10;;
8165;SDS011;4124;50.856;3.634;2022-08-21T00:48:57;6.67;;;2.40;;
8165;SDS011;4124;50.856;3.634;2022-08-21T00:51:24;4.00;;;1.80;;
8165;SDS011;4124;50.856;3.634;2022-08-21T00:53:55;5.83;;;2.27;;
8165;SDS011;4124;50.856;3.634;2022-08-21T00:56:21;3.13;;;1.80;;
8165;SDS011;4124;50.856;3.634;2022-08-21T00:58:48;4.37;;;2.00;;
8165;SDS011;4124;50.856;3.634;2022-08-21T01:01:14;3.33;;;1.93;;
8165;SDS011;4124;50.856;3.634;2022-08-21T01:03:40;3.40;;;2.40;;
8165;SDS011;4124;50.856;3.634;2022-08-21T01:06:05;2.70;;;1.60;;
8165;SDS011;4124;50.856;3.634;2022-08-21T01:08:31;2.80;;;1.83;;
8165;SDS011;4124;50.856;3.634;2022-08-21T01:10:57;2.87;;;2.03;;
8165;SDS011;4124;50.856;3.634;2022-08-21T01:13:24;4.63;;;2.03;;
8165;SDS011;4124;50.856;3.634;2022-08-21T01:15:50;4.33;;;2.40;;
8165;SDS011;4124;50.856;3.634;2022-08-21T01:18:18;3.77;;;2.07;;
8165;SDS011;4124;50.856;3.634;2022-08-21T01:23:14;3.23;;;2.03;;
8165;SDS011;4124;50.856;3.634;2022-08-21T01:25:40;2.43;;;1.67;;
8165;SDS011;4124;50.856;3.634;2022-08-21T01:28:12;3.67;;;1.80;;
8165;SDS011;4124;50.856;3.634;2022-08-21T01:30:37;3.30;;;1.90;;
8165;SDS011;4124;50.856;3.634;2022-08-21T01:33:03;6.50;;;1.97;;
8165;SDS011;4124;50.856;3.634;2022-08-21T01:35:28;5.30;;;2.10;;
8165;SDS011;4124;50.856;3.634;2022-08-21T01:37:54;3.93;;;2.10;;
8165;SDS011;4124;50.856;3.634;2022-08-21T01:40:19;3.70;;;1.80;;
8165;SDS011;4124;50.856;3.634;2022-08-21T01:42:45;4.20;;;2.17;;
8165;SDS011;4124;50.856;3.634;2022-08-21T01:45:11;3.00;;;1.60;;
8165;SDS011;4124;50.856;3.634;2022-08-21T01:47:37;3.03;;;2.07;;
8165;SDS011;4124;50.856;3.634;2022-08-21T01:50:03;3.50;;;1.93;;
8165;SDS011;4124;50.856;3.634;2022-08-21T01:52:29;3.63;;;1.90;;
8165;SDS011;4124;50.856;3.634;2022-08-21T01:54:54;3.50;;;1.63;;
8165;SDS011;4124;50.856;3.634;2022-08-21T01:57:19;5.50;;;2.10;;
8165;SDS011;4124;50.856;3.634;2022-08-21T01:59:44;6.73;;;1.93;;
8165;SDS011;4124;50.856;3.634;2022-08-21T02:02:10;3.47;;;1.73;;
8165;SDS011;4124;50.856;3.634;2022-08-21T02:04:35;3.20;;;1.70;;
8165;SDS011;4124;50.856;3.634;2022-08-21T02:07:01;3.20;;;1.80;;
8165;SDS011;4124;50.856;3.634;2022-08-21T02:09:26;5.40;;;2.10;;
8165;SDS011;4124;50.856;3.634;2022-08-21T02:11:51;4.07;;;2.10;;
8165;SDS011;4124;50.856;3.634;2022-08-21T02:14:17;3.77;;;1.80;;
8165;SDS011;4124;50.856;3.634;2022-08-21T02:16:43;4.03;;;2.07;;
8165;SDS011;4124;50.856;3.634;2022-08-21T02:19:09;3.77;;;1.80;;
8165;SDS011;4124;50.856;3.634;2022-08-21T02:21:34;4.43;;;2.20;;
8165;SDS011;4124;50.856;3.634;2022-08-21T02:24:00;2.47;;;1.60;;
8165;SDS011;4124;50.856;3.634;2022-08-21T02:26:25;7.47;;;2.33;;
8165;SDS011;4124;50.856;3.634;2022-08-21T02:28:51;3.83;;;1.80;;
8165;SDS011;4124;50.856;3.634;2022-08-21T02:31:16;4.77;;;1.80;;
8165;SDS011;4124;50.856;3.634;2022-08-21T02:33:41;2.97;;;1.90;;
8165;SDS011;4124;50.856;3.634;2022-08-21T02:36:07;5.00;;;1.70;;
8165;SDS011;4124;50.856;3.634;2022-08-21T02:38:33;2.50;;;1.70;;
8165;SDS011;4124;50.856;3.634;2022-08-21T02:40:59;4.60;;;1.80;;
8165;SDS011;4124;50.856;3.634;2022-08-21T02:43:26;2.13;;;1.60;;
8165;SDS011;4124;50.856;3.634;2022-08-21T02:45:52;2.57;;;1.90;;
8165;SDS011;4124;50.856;3.634;2022-08-21T02:48:18;4.30;;;1.60;;
8165;SDS011;4124;50.856;3.634;2022-08-21T02:50:50;3.07;;;1.83;;
8165;SDS011;4124;50.856;3.634;2022-08-21T02:53:16;2.80;;;1.70;;
8165;SDS011;4124;50.856;3.634;2022-08-21T02:55:42;2.27;;;1.63;;
8165;SDS011;4124;50.856;3.634;2022-08-21T02:58:08;2.00;;;1.73;;
8165;SDS011;4124;50.856;3.634;2022-08-21T03:00:33;3.30;;;2.00;;
8165;SDS011;4124;50.856;3.634;2022-08-21T03:02:59;2.80;;;1.90;;
8165;SDS011;4124;50.856;3.634;2022-08-21T03:05:25;2.43;;;1.53;;
8165;SDS011;4124;50.856;3.634;2022-08-21T03:07:51;3.10;;;1.63;;
8165;SDS011;4124;50.856;3.634;2022-08-21T03:10:17;3.33;;;1.73;;
8165;SDS011;4124;50.856;3.634;2022-08-21T03:12:44;3.37;;;1.97;;
8165;SDS011;4124;50.856;3.634;2022-08-21T03:15:10;3.73;;;1.90;;
8165;SDS011;4124;50.856;3.634;2022-08-21T03:17:36;1.67;;;1.30;;
8165;SDS011;4124;50.856;3.634;2022-08-21T03:20:03;5.57;;;1.90;;
8165;SDS011;4124;50.856;3.634;2022-08-21T03:22:28;3.60;;;1.97;;
8165;SDS011;4124;50.856;3.634;2022-08-21T03:24:54;2.23;;;1.20;;
8165;SDS011;4124;50.856;3.634;2022-08-21T03:27:19;2.10;;;1.47;;
8165;SDS011;4124;50.856;3.634;2022-08-21T03:29:44;3.70;;;1.97;;
8165;SDS011;4124;50.856;3.634;2022-08-21T03:32:09;4.73;;;1.80;;
8165;SDS011;4124;50.856;3.634;2022-08-21T03:34:35;4.53;;;1.83;;
8165;SDS011;4124;50.856;3.634;2022-08-21T03:37:01;3.07;;;1.70;;
8165;SDS011;4124;50.856;3.634;2022-08-21T03:39:27;3.80;;;2.10;;
8165;SDS011;4124;50.856;3.634;2022-08-21T03:41:52;5.50;;;1.77;;
8165;SDS011;4124;50.856;3.634;2022-08-21T03:44:18;3.30;;;1.80;;
8165;SDS011;4124;50.856;3.634;2022-08-21T03:46:44;3.27;;;1.70;;
8165;SDS011;4124;50.856;3.634;2022-08-21T03:49:09;2.23;;;1.57;;
8165;SDS011;4124;50.856;3.634;2022-08-21T03:51:34;4.30;;;1.97;;
8165;SDS011;4124;50.856;3.634;2022-08-21T03:54:00;3.47;;;1.93;;
8165;SDS011;4124;50.856;3.634;2022-08-21T03:56:25;2.90;;;1.57;;
8165;SDS011;4124;50.856;3.634;2022-08-21T03:58:50;3.00;;;2.10;;
8165;SDS011;4124;50.856;3.634;2022-08-21T04:01:16;2.00;;;1.40;;
8165;SDS011;4124;50.856;3.634;2022-08-21T04:03:41;1.80;;;1.40;;
8165;SDS011;4124;50.856;3.634;2022-08-21T04:06:06;4.73;;;1.60;;
8165;SDS011;4124;50.856;3.634;2022-08-21T04:08:32;2.90;;;1.77;;
8165;SDS011;4124;50.856;3.634;2022-08-21T04:10:57;3.70;;;1.60;;
8165;SDS011;4124;50.856;3.634;2022-08-21T04:13:23;2.70;;;1.40;;
8165;SDS011;4124;50.856;3.634;2022-08-21T04:15:48;3.27;;;1.73;;
8165;SDS011;4124;50.856;3.634;2022-08-21T04:18:14;2.70;;;1.63;;
8165;SDS011;4124;50.856;3.634;2022-08-21T04:20:39;3.30;;;1.60;;
8165;SDS011;4124;50.856;3.634;2022-08-21T04:23:05;2.37;;;1.60;;
8165;SDS011;4124;50.856;3.634;2022-08-21T04:25:31;1.70;;;1.30;;
8165;SDS011;4124;50.856;3.634;2022-08-21T04:27:56;3.40;;;1.93;;
8165;SDS011;4124;50.856;3.634;2022-08-21T04:30:22;842.30;;;761.43;;
8165;SDS011;4124;50.856;3.634;2022-08-21T04:32:47;857.17;;;775.27;;
8165;SDS011;4124;50.856;3.634;2022-08-21T04:35:14;849.60;;;768.10;;
8165;SDS011;4124;50.856;3.634;2022-08-21T04:37:40;859.17;;;777.07;;
8165;SDS011;4124;50.856;3.634;2022-08-21T04:40:05;851.00;;;769.57;;
8165;SDS011;4124;50.856;3.634;2022-08-21T04:42:31;854.67;;;772.70;;
8165;SDS011;4124;50.856;3.634;2022-08-21T04:44:57;853.87;;;772.07;;
8165;SDS011;4124;50.856;3.634;2022-08-21T04:47:22;851.13;;;769.63;;
8165;SDS011;4124;50.856;3.634;2022-08-21T04:49:48;854.37;;;772.43;;
8165;SDS011;4124;50.856;3.634;2022-08-21T04:52:16;850.33;;;768.83;;
8165;SDS011;4124;50.856;3.634;2022-08-21T04:54:42;850.63;;;769.13;;
8165;SDS011;4124;50.856;3.634;2022-08-21T04:57:08;857.03;;;775.17;;
8165;SDS011;4124;50.856;3.634;2022-08-21T04:59:36;850.53;;;769.17;;
8165;SDS011;4124;50.856;3.634;2022-08-21T05:02:01;853.10;;;771.43;;
8165;SDS011;4124;50.856;3.634;2022-08-21T05:04:28;848.53;;;766.97;;
8165;SDS011;4124;50.856;3.634;2022-08-21T05:06:55;855.80;;;774.00;;
8165;SDS011;4124;50.856;3.634;2022-08-21T05:09:20;858.23;;;776.27;;
8165;SDS011;4124;50.856;3.634;2022-08-21T05:11:46;853.13;;;771.33;;
8165;SDS011;4124;50.856;3.634;2022-08-21T05:14:12;845.90;;;764.77;;
8165;SDS011;4124;50.856;3.634;2022-08-21T05:16:37;856.77;;;774.70;;
8165;SDS011;4124;50.856;3.634;2022-08-21T05:19:03;849.90;;;768.53;;
8165;SDS011;4124;50.856;3.634;2022-08-21T05:21:28;861.50;;;779.10;;
8165;SDS011;4124;50.856;3.634;2022-08-21T05:23:53;858.67;;;776.67;;
8165;SDS011;4124;50.856;3.634;2022-08-21T05:26:19;851.60;;;770.07;;
8165;SDS011;4124;50.856;3.634;2022-08-21T05:28:44;849.53;;;768.03;;
8165;SDS011;4124;50.856;3.634;2022-08-21T05:31:09;856.27;;;774.40;;
8165;SDS011;4124;50.856;3.634;2022-08-21T05:33:35;856.60;;;774.80;;
8165;SDS011;4124;50.856;3.634;2022-08-21T05:36:00;858.67;;;776.57;;
8165;SDS011;4124;50.856;3.634;2022-08-21T05:38:25;850.33;;;768.63;;
8165;SDS011;4124;50.856;3.634;2022-08-21T05:40:52;884.00;;;795.20;;
8165;SDS011;4124;50.856;3.634;2022-08-21T05:43:17;860.63;;;777.47;;
8165;SDS011;4124;50.856;3.634;2022-08-21T05:45:42;850.27;;;768.40;;
8165;SDS011;4124;50.856;3.634;2022-08-21T05:48:08;855.73;;;772.97;;
8165;SDS011;4124;50.856;3.634;2022-08-21T05:50:34;853.60;;;771.10;;
8165;SDS011;4124;50.856;3.634;2022-08-21T05:53:00;860.50;;;777.77;;
8165;SDS011;4124;50.856;3.634;2022-08-21T05:55:25;858.37;;;775.57;;
8165;SDS011;4124;50.856;3.634;2022-08-21T05:57:51;861.33;;;778.03;;
8165;SDS011;4124;50.856;3.634;2022-08-21T06:00:16;861.80;;;778.80;;
8165;SDS011;4124;50.856;3.634;2022-08-21T06:02:41;863.60;;;780.00;;
8165;SDS011;4124;50.856;3.634;2022-08-21T06:05:07;862.40;;;779.30;;
8165;SDS011;4124;50.856;3.634;2022-08-21T06:07:32;855.13;;;772.13;;
8165;SDS011;4124;50.856;3.634;2022-08-21T06:09:57;859.60;;;776.57;;
8165;SDS011;4124;50.856;3.634;2022-08-21T06:12:23;860.80;;;777.47;;
8165;SDS011;4124;50.856;3.634;2022-08-21T06:14:48;849.27;;;766.87;;
8165;SDS011;4124;50.856;3.634;2022-08-21T06:17:15;858.87;;;775.87;;
8165;SDS011;4124;50.856;3.634;2022-08-21T06:19:40;861.63;;;778.27;;
8165;SDS011;4124;50.856;3.634;2022-08-21T06:22:06;860.87;;;777.63;;
8165;SDS011;4124;50.856;3.634;2022-08-21T06:24:31;6.73;;;2.00;;
8165;SDS011;4124;50.856;3.634;2022-08-21T06:26:57;4.57;;;1.90;;
8165;SDS011;4124;50.856;3.634;2022-08-21T06:29:22;5.10;;;2.03;;
8165;SDS011;4124;50.856;3.634;2022-08-21T06:31:48;8.10;;;2.07;;
8165;SDS011;4124;50.856;3.634;2022-08-21T06:34:14;8.50;;;2.50;;
8165;SDS011;4124;50.856;3.634;2022-08-21T06:36:40;7.97;;;2.60;;
8165;SDS011;4124;50.856;3.634;2022-08-21T06:39:05;7.70;;;2.33;;
8165;SDS011;4124;50.856;3.634;2022-08-21T06:41:31;4.33;;;1.97;;
8165;SDS011;4124;50.856;3.634;2022-08-21T06:43:56;9.33;;;2.03;;
8165;SDS011;4124;50.856;3.634;2022-08-21T06:46:22;6.73;;;2.20;;
8165;SDS011;4124;50.856;3.634;2022-08-21T06:48:48;6.70;;;2.23;;
8165;SDS011;4124;50.856;3.634;2022-08-21T06:51:14;8.43;;;2.00;;
8165;SDS011;4124;50.856;3.634;2022-08-21T06:53:39;6.70;;;2.60;;
8165;SDS011;4124;50.856;3.634;2022-08-21T06:56:04;6.77;;;1.97;;
8165;SDS011;4124;50.856;3.634;2022-08-21T06:58:30;7.83;;;2.33;;
8165;SDS011;4124;50.856;3.634;2022-08-21T07:00:55;6.80;;;2.40;;
8165;SDS011;4124;50.856;3.634;2022-08-21T07:03:26;9.70;;;2.40;;
8165;SDS011;4124;50.856;3.634;2022-08-21T07:05:52;8.77;;;2.33;;
8165;SDS011;4124;50.856;3.634;2022-08-21T07:08:18;5.63;;;1.90;;
8165;SDS011;4124;50.856;3.634;2022-08-21T07:10:43;7.93;;;2.07;;
8165;SDS011;4124;50.856;3.634;2022-08-21T07:13:09;8.80;;;2.63;;
8165;SDS011;4124;50.856;3.634;2022-08-21T07:15:34;6.77;;;2.33;;
8165;SDS011;4124;50.856;3.634;2022-08-21T07:17:59;10.40;;;2.20;;
8165;SDS011;4124;50.856;3.634;2022-08-21T07:20:25;10.00;;;2.50;;
8165;SDS011;4124;50.856;3.634;2022-08-21T07:22:51;8.33;;;2.20;;
8165;SDS011;4124;50.856;3.634;2022-08-21T07:25:16;12.23;;;2.23;;
8165;SDS011;4124;50.856;3.634;2022-08-21T07:27:41;5.90;;;1.93;;
8165;SDS011;4124;50.856;3.634;2022-08-21T07:30:06;9.73;;;2.37;;
8165;SDS011;4124;50.856;3.634;2022-08-21T07:32:32;7.13;;;2.20;;
8165;SDS011;4124;50.856;3.634;2022-08-21T07:34:57;6.30;;;2.10;;
8165;SDS011;4124;50.856;3.634;2022-08-21T07:37:22;6.13;;;2.23;;
8165;SDS011;4124;50.856;3.634;2022-08-21T07:39:47;6.70;;;2.23;;
8165;SDS011;4124;50.856;3.634;2022-08-21T07:42:14;13.97;;;2.80;;
8165;SDS011;4124;50.856;3.634;2022-08-21T07:44:39;9.20;;;2.07;;
8165;SDS011;4124;50.856;3.634;2022-08-21T07:47:04;7.87;;;2.23;;
8165;SDS011;4124;50.856;3.634;2022-08-21T07:49:30;9.50;;;2.60;;
8165;SDS011;4124;50.856;3.634;2022-08-21T07:51:55;9.13;;;2.47;;
8165;SDS011;4124;50.856;3.634;2022-08-21T07:54:20;11.73;;;2.83;;
8165;SDS011;4124;50.856;3.634;2022-08-21T07:56:46;9.60;;;3.03;;
8165;SDS011;4124;50.856;3.634;2022-08-21T07:59:11;11.40;;;2.60;;
8165;SDS011;4124;50.856;3.634;2022-08-21T08:01:36;6.83;;;2.30;;
8165;SDS011;4124;50.856;3.634;2022-08-21T08:04:01;9.43;;;2.63;;
8165;SDS011;4124;50.856;3.634;2022-08-21T08:06:27;10.20;;;2.53;;
8165;SDS011;4124;50.856;3.634;2022-08-21T08:08:52;10.80;;;2.40;;
8165;SDS011;4124;50.856;3.634;2022-08-21T08:11:17;6.20;;;2.40;;
8165;SDS011;4124;50.856;3.634;2022-08-21T08:13:45;11.27;;;2.60;;
8165;SDS011;4124;50.856;3.634;2022-08-21T08:16:11;7.27;;;2.73;;
8165;SDS011;4124;50.856;3.634;2022-08-21T08:18:36;8.47;;;2.97;;
8165;SDS011;4124;50.856;3.634;2022-08-21T08:21:02;14.57;;;3.00;;
8165;SDS011;4124;50.856;3.634;2022-08-21T08:23:27;12.87;;;2.77;;
8165;SDS011;4124;50.856;3.634;2022-08-21T08:25:52;9.13;;;2.40;;
8165;SDS011;4124;50.856;3.634;2022-08-21T08:28:18;9.20;;;3.30;;
8165;SDS011;4124;50.856;3.634;2022-08-21T08:30:44;11.00;;;2.37;;
8165;SDS011;4124;50.856;3.634;2022-08-21T08:33:09;8.80;;;2.80;;
8165;SDS011;4124;50.856;3.634;2022-08-21T08:35:35;5.87;;;2.37;;
8165;SDS011;4124;50.856;3.634;2022-08-21T08:38:01;6.50;;;2.23;;
8165;SDS011;4124;50.856;3.634;2022-08-21T08:40:37;9.53;;;2.33;;
8165;SDS011;4124;50.856;3.634;2022-08-21T08:43:04;9.00;;;2.90;;
8165;SDS011;4124;50.856;3.634;2022-08-21T08:45:36;9.73;;;2.73;;
8165;SDS011;4124;50.856;3.634;2022-08-21T08:48:02;9.87;;;2.40;;
8165;SDS011;4124;50.856;3.634;2022-08-21T08:50:44;8.50;;;2.60;;
8165;SDS011;4124;50.856;3.634;2022-08-21T08:53:29;8.77;;;2.20;;
8165;SDS011;4124;50.856;3.634;2022-08-21T08:55:56;10.70;;;2.70;;
8165;SDS011;4124;50.856;3.634;2022-08-21T08:58:27;8.13;;;2.40;;
8165;SDS011;4124;50.856;3.634;2022-08-21T09:00:55;7.60;;;2.70;;
8165;SDS011;4124;50.856;3.634;2022-08-21T09:03:22;15.00;;;2.90;;
8165;SDS011;4124;50.856;3.634;2022-08-21T09:05:49;6.73;;;2.20;;
8165;SDS011;4124;50.856;3.634;2022-08-21T09:08:19;6.97;;;2.43;;
8165;SDS011;4124;50.856;3.634;2022-08-21T09:26:20;6.47;;;2.40;;
8165;SDS011;4124;50.856;3.634;2022-08-21T09:28:45;7.93;;;2.00;;
8165;SDS011;4124;50.856;3.634;2022-08-21T09:31:21;5.87;;;2.20;;
8165;SDS011;4124;50.856;3.634;2022-08-21T09:33:47;7.17;;;2.73;;
8165;SDS011;4124;50.856;3.634;2022-08-21T09:36:12;9.20;;;2.43;;
8165;SDS011;4124;50.856;3.634;2022-08-21T09:38:51;5.30;;;1.97;;
8165;SDS011;4124;50.856;3.634;2022-08-21T09:41:16;7.77;;;2.60;;
8165;SDS011;4124;50.856;3.634;2022-08-21T09:43:53;8.80;;;2.43;;
8165;SDS011;4124;50.856;3.634;2022-08-21T09:46:22;6.80;;;1.63;;
8165;SDS011;4124;50.856;3.634;2022-08-21T09:48:50;6.60;;;2.30;;
8165;SDS011;4124;50.856;3.634;2022-08-21T09:51:17;6.10;;;2.00;;
8165;SDS011;4124;50.856;3.634;2022-08-21T09:53:48;9.10;;;1.90;;
8165;SDS011;4124;50.856;3.634;2022-08-21T09:56:18;8.53;;;2.30;;
8165;SDS011;4124;50.856;3.634;2022-08-21T09:59:12;5.87;;;2.30;;
8165;SDS011;4124;50.856;3.634;2022-08-21T10:01:42;4.47;;;2.43;;
8165;SDS011;4124;50.856;3.634;2022-08-21T10:04:08;5.83;;;2.10;;
8165;SDS011;4124;50.856;3.634;2022-08-21T10:06:33;6.10;;;2.03;;
8165;SDS011;4124;50.856;3.634;2022-08-21T10:09:10;5.40;;;1.90;;
8165;SDS011;4124;50.856;3.634;2022-08-21T10:11:36;6.00;;;2.30;;
8165;SDS011;4124;50.856;3.634;2022-08-21T10:16:33;5.37;;;2.10;;
8165;SDS011;4124;50.856;3.634;2022-08-21T10:32:00;10.43;;;2.60;;
8165;SDS011;4124;50.856;3.634;2022-08-21T10:37:16;15.43;;;3.20;;
8165;SDS011;4124;50.856;3.634;2022-08-21T10:47:34;9.33;;;3.23;;
8165;SDS011;4124;50.856;3.634;2022-08-21T10:55:19;8.53;;;3.20;;
8165;SDS011;4124;50.856;3.634;2022-08-21T10:57:59;9.97;;;3.80;;
8165;SDS011;4124;50.856;3.634;2022-08-21T11:08:15;7.97;;;2.87;;
8165;SDS011;4124;50.856;3.634;2022-08-21T11:10:44;8.07;;;2.70;;
8165;SDS011;4124;50.856;3.634;2022-08-21T11:18:35;6.30;;;2.33;;
8165;SDS011;4124;50.856;3.634;2022-08-21T11:21:15;7.27;;;2.47;;
8165;SDS011;4124;50.856;3.634;2022-08-21T11:23:45;8.20;;;2.40;;
8165;SDS011;4124;50.856;3.634;2022-08-21T11:26:13;6.97;;;2.50;;
8165;SDS011;4124;50.856;3.634;2022-08-21T11:28:44;10.93;;;3.37;;
8165;SDS011;4124;50.856;3.634;2022-08-21T11:33:49;7.40;;;2.67;;
8165;SDS011;4124;50.856;3.634;2022-08-21T11:36:25;7.70;;;2.40;;
8165;SDS011;4124;50.856;3.634;2022-08-21T11:38:57;8.40;;;2.40;;
8165;SDS011;4124;50.856;3.634;2022-08-21T11:41:37;6.27;;;2.63;;
8165;SDS011;4124;50.856;3.634;2022-08-21T11:44:08;6.67;;;2.70;;
8165;SDS011;4124;50.856;3.634;2022-08-21T11:46:47;7.83;;;2.77;;
8165;SDS011;4124;50.856;3.634;2022-08-21T11:54:21;4.73;;;2.20;;
8165;SDS011;4124;50.856;3.634;2022-08-21T11:56:51;4.33;;;2.03;;
8165;SDS011;4124;50.856;3.634;2022-08-21T11:59:23;5.60;;;2.43;;
8165;SDS011;4124;50.856;3.634;2022-08-21T12:01:50;10.80;;;3.10;;
8165;SDS011;4124;50.856;3.634;2022-08-21T12:04:23;5.07;;;2.20;;
8165;SDS011;4124;50.856;3.634;2022-08-21T12:06:50;10.77;;;2.47;;
8165;SDS011;4124;50.856;3.634;2022-08-21T12:12:11;6.50;;;2.80;;
8165;SDS011;4124;50.856;3.634;2022-08-21T12:14:43;6.23;;;2.63;;
8165;SDS011;4124;50.856;3.634;2022-08-21T12:17:09;5.93;;;2.33;;
8165;SDS011;4124;50.856;3.634;2022-08-21T12:19:41;8.77;;;2.73;;
8165;SDS011;4124;50.856;3.634;2022-08-21T12:22:16;8.50;;;2.27;;
8165;SDS011;4124;50.856;3.634;2022-08-21T12:29:37;11.53;;;3.27;;
8165;SDS011;4124;50.856;3.634;2022-08-21T12:32:04;11.93;;;2.23;;
8165;SDS011;4124;50.856;3.634;2022-08-21T12:34:49;8.33;;;2.40;;
8165;SDS011;4124;50.856;3.634;2022-08-21T12:39:42;5.23;;;2.30;;
8165;SDS011;4124;50.856;3.634;2022-08-21T12:42:37;9.53;;;2.00;;
8165;SDS011;4124;50.856;3.634;2022-08-21T12:45:06;4.93;;;2.43;;
8165;SDS011;4124;50.856;3.634;2022-08-21T12:47:52;6.50;;;2.00;;
8165;SDS011;4124;50.856;3.634;2022-08-21T12:50:21;9.30;;;2.13;;
8165;SDS011;4124;50.856;3.634;2022-08-21T12:52:57;2.77;;;1.63;;
8165;SDS011;4124;50.856;3.634;2022-08-21T12:55:28;5.83;;;2.43;;
8165;SDS011;4124;50.856;3.634;2022-08-21T12:57:54;7.13;;;2.20;;
8165;SDS011;4124;50.856;3.634;2022-08-21T13:00:21;5.50;;;2.17;;
8165;SDS011;4124;50.856;3.634;2022-08-21T13:02:47;5.53;;;2.50;;
8165;SDS011;4124;50.856;3.634;2022-08-21T13:05:15;10.80;;;2.77;;
8165;SDS011;4124;50.856;3.634;2022-08-21T13:07:44;4.03;;;1.90;;
8165;SDS011;4124;50.856;3.634;2022-08-21T13:12:50;5.83;;;2.50;;
8165;SDS011;4124;50.856;3.634;2022-08-21T13:15:21;5.90;;;2.03;;
8165;SDS011;4124;50.856;3.634;2022-08-21T13:17:47;6.20;;;2.20;;
8165;SDS011;4124;50.856;3.634;2022-08-21T13:20:23;9.40;;;1.80;;
8165;SDS011;4124;50.856;3.634;2022-08-21T13:22:50;5.60;;;1.90;;
8165;SDS011;4124;50.856;3.634;2022-08-21T13:25:17;4.00;;;2.20;;
8165;SDS011;4124;50.856;3.634;2022-08-21T13:27:43;6.17;;;2.17;;
8165;SDS011;4124;50.856;3.634;2022-08-21T13:30:13;4.70;;;2.20;;
8165;SDS011;4124;50.856;3.634;2022-08-21T13:32:43;7.20;;;2.60;;
8165;SDS011;4124;50.856;3.634;2022-08-21T13:35:10;6.50;;;2.30;;
8165;SDS011;4124;50.856;3.634;2022-08-21T13:37:37;4.53;;;2.03;;
8165;SDS011;4124;50.856;3.634;2022-08-21T13:40:06;2.80;;;1.63;;
8165;SDS011;4124;50.856;3.634;2022-08-21T13:42:31;3.20;;;1.80;;
8165;SDS011;4124;50.856;3.634;2022-08-21T13:44:58;6.33;;;1.90;;
8165;SDS011;4124;50.856;3.634;2022-08-21T13:47:23;5.90;;;2.17;;
8165;SDS011;4124;50.856;3.634;2022-08-21T13:49:49;5.67;;;2.17;;
8165;SDS011;4124;50.856;3.634;2022-08-21T13:52:22;4.23;;;1.97;;
8165;SDS011;4124;50.856;3.634;2022-08-21T13:54:58;4.73;;;2.10;;
8165;SDS011;4124;50.856;3.634;2022-08-21T13:57:31;3.47;;;1.93;;
8165;SDS011;4124;50.856;3.634;2022-08-21T14:00:12;4.87;;;2.30;;
8165;SDS011;4124;50.856;3.634;2022-08-21T14:02:41;7.50;;;2.63;;
8165;SDS011;4124;50.856;3.634;2022-08-21T14:05:13;5.10;;;1.80;;
8165;SDS011;4124;50.856;3.634;2022-08-21T14:07:39;5.73;;;2.30;;
8165;SDS011;4124;50.856;3.634;2022-08-21T14:10:16;8.60;;;2.50;;
8165;SDS011;4124;50.856;3.634;2022-08-21T14:13:02;6.90;;;2.60;;
8165;SDS011;4124;50.856;3.634;2022-08-21T14:15:30;5.40;;;2.33;;
8165;SDS011;4124;50.856;3.634;2022-08-21T14:18:15;4.60;;;2.23;;
8165;SDS011;4124;50.856;3.634;2022-08-21T14:20:41;5.03;;;2.43;;
8165;SDS011;4124;50.856;3.634;2022-08-21T14:23:06;6.70;;;2.63;;
8165;SDS011;4124;50.856;3.634;2022-08-21T14:25:39;7.87;;;2.70;;
8165;SDS011;4124;50.856;3.634;2022-08-21T14:28:10;7.20;;;2.10;;
8165;SDS011;4124;50.856;3.634;2022-08-21T14:30:38;7.00;;;2.30;;
8165;SDS011;4124;50.856;3.634;2022-08-21T14:33:04;6.63;;;1.90;;
8165;SDS011;4124;50.856;3.634;2022-08-21T14:35:32;4.70;;;2.33;;
8165;SDS011;4124;50.856;3.634;2022-08-21T14:37:57;7.03;;;2.20;;
8165;SDS011;4124;50.856;3.634;2022-08-21T14:40:23;6.27;;;2.40;;
8165;SDS011;4124;50.856;3.634;2022-08-21T14:42:49;5.50;;;2.20;;
8165;SDS011;4124;50.856;3.634;2022-08-21T14:45:15;9.40;;;2.60;;
8165;SDS011;4124;50.856;3.634;2022-08-21T14:47:41;6.60;;;2.87;;
8165;SDS011;4124;50.856;3.634;2022-08-21T14:50:07;3.53;;;2.13;;
8165;SDS011;4124;50.856;3.634;2022-08-21T14:52:33;3.30;;;2.10;;
8165;SDS011;4124;50.856;3.634;2022-08-21T14:54:58;5.30;;;2.43;;
8165;SDS011;4124;50.856;3.634;2022-08-21T14:57:23;7.73;;;2.43;;
8165;SDS011;4124;50.856;3.634;2022-08-21T14:59:49;5.50;;;2.20;;
8165;SDS011;4124;50.856;3.634;2022-08-21T15:02:14;4.00;;;2.00;;
8165;SDS011;4124;50.856;3.634;2022-08-21T15:04:40;4.43;;;2.20;;
8165;SDS011;4124;50.856;3.634;2022-08-21T15:07:06;7.00;;;2.23;;
8165;SDS011;4124;50.856;3.634;2022-08-21T15:09:32;9.00;;;2.23;;
8165;SDS011;4124;50.856;3.634;2022-08-21T15:11:57;5.90;;;2.60;;
8165;SDS011;4124;50.856;3.634;2022-08-21T15:14:24;9.73;;;2.30;;
8165;SDS011;4124;50.856;3.634;2022-08-21T15:16:51;5.63;;;2.20;;
8165;SDS011;4124;50.856;3.634;2022-08-21T15:19:16;4.40;;;2.17;;
8165;SDS011;4124;50.856;3.634;2022-08-21T15:21:42;9.63;;;2.80;;
8165;SDS011;4124;50.856;3.634;2022-08-21T15:24:07;3.17;;;2.10;;
8165;SDS011;4124;50.856;3.634;2022-08-21T15:26:32;8.20;;;1.97;;
8165;SDS011;4124;50.856;3.634;2022-08-21T15:28:58;9.20;;;2.83;;
8165;SDS011;4124;50.856;3.634;2022-08-21T15:31:24;5.83;;;2.20;;
8165;SDS011;4124;50.856;3.634;2022-08-21T15:33:49;7.20;;;2.13;;
8165;SDS011;4124;50.856;3.634;2022-08-21T15:36:14;8.73;;;2.63;;
8165;SDS011;4124;50.856;3.634;2022-08-21T15:38:39;4.30;;;2.10;;
8165;SDS011;4124;50.856;3.634;2022-08-21T15:41:05;4.47;;;2.40;;
8165;SDS011;4124;50.856;3.634;2022-08-21T15:43:33;3.70;;;2.43;;
8165;SDS011;4124;50.856;3.634;2022-08-21T15:46:00;5.17;;;2.03;;
8165;SDS011;4124;50.856;3.634;2022-08-21T15:48:26;6.40;;;2.23;;
8165;SDS011;4124;50.856;3.634;2022-08-21T15:50:51;8.40;;;2.50;;
8165;SDS011;4124;50.856;3.634;2022-08-21T15:53:16;7.07;;;2.40;;
8165;SDS011;4124;50.856;3.634;2022-08-21T15:55:42;5.47;;;2.10;;
8165;SDS011;4124;50.856;3.634;2022-08-21T15:58:07;8.73;;;2.40;;
8165;SDS011;4124;50.856;3.634;2022-08-21T16:00:36;5.23;;;2.20;;
8165;SDS011;4124;50.856;3.634;2022-08-21T16:03:02;7.03;;;2.30;;
8165;SDS011;4124;50.856;3.634;2022-08-21T16:05:29;7.63;;;2.57;;
8165;SDS011;4124;50.856;3.634;2022-08-21T16:07:54;4.37;;;2.13;;
8165;SDS011;4124;50.856;3.634;2022-08-21T16:10:20;6.33;;;2.30;;
8165;SDS011;4124;50.856;3.634;2022-08-21T16:12:47;4.87;;;2.27;;
8165;SDS011;4124;50.856;3.634;2022-08-21T16:15:13;4.53;;;2.27;;
8165;SDS011;4124;50.856;3.634;2022-08-21T16:17:40;7.27;;;2.80;;
8165;SDS011;4124;50.856;3.634;2022-08-21T16:20:07;3.97;;;2.00;;
8165;SDS011;4124;50.856;3.634;2022-08-21T16:22:33;6.00;;;2.23;;
8165;SDS011;4124;50.856;3.634;2022-08-21T16:24:58;4.00;;;2.03;;
8165;SDS011;4124;50.856;3.634;2022-08-21T16:27:23;3.97;;;2.10;;
8165;SDS011;4124;50.856;3.634;2022-08-21T16:29:48;8.60;;;2.60;;